createdAt,value
2023-02-27T00:00:19.698Z,0.20
2023-02-27T00:02:49.142Z,0.10
2023-02-27T00:05:16.971Z,0.20
2023-02-27T00:07:44.005Z,0.20
2023-02-27T00:10:14.967Z,0.20
2023-02-27T00:12:43.007Z,0.00
2023-02-27T00:15:13.281Z,0.10
2023-02-27T00:17:40.696Z,0.10
2023-02-27T00:20:13.841Z,-0.10
2023-02-27T00:22:41.400Z,0.00
2023-02-27T00:25:09.299Z,-0.30
2023-02-27T00:27:37.142Z,-0.20
2023-02-27T00:30:06.058Z,-0.40
2023-02-27T00:32:33.380Z,-0.30
2023-02-27T00:35:01.428Z,-0.40
2023-02-27T00:37:28.493Z,-0.30
2023-02-27T00:39:55.479Z,-0.30
2023-02-27T00:42:22.469Z,-0.20
2023-02-27T00:44:49.410Z,-0.20
2023-02-27T00:47:16.458Z,-0.10
2023-02-27T00:49:43.442Z,-0.30
2023-02-27T00:52:10.451Z,-0.50
2023-02-27T00:54:37.638Z,-0.40
2023-02-27T00:57:04.738Z,-0.40
2023-02-27T00:59:31.839Z,-0.50
2023-02-27T01:01:58.812Z,-0.60
2023-02-27T01:04:28.326Z,-0.50
2023-02-27T01:06:55.339Z,-0.70
2023-02-27T01:09:22.442Z,-0.80
2023-02-27T01:11:52.845Z,-0.90
2023-02-27T01:14:20.012Z,-0.90
2023-02-27T01:16:47.004Z,-1.00
2023-02-27T01:19:15.611Z,-1.00
2023-02-27T01:21:43.917Z,-0.70
2023-02-27T01:24:11.471Z,-0.70
2023-02-27T01:26:38.666Z,-0.60
2023-02-27T01:29:06.574Z,-0.70
2023-02-27T01:31:34.315Z,-0.60
2023-02-27T01:34:01.377Z,-0.60
2023-02-27T01:36:28.526Z,-1.20
2023-02-27T01:38:55.557Z,-1.00
2023-02-27T01:41:22.619Z,-0.90
2023-02-27T01:44:11.619Z,-0.90
2023-02-27T01:46:39.231Z,-0.80
2023-02-27T01:49:16.109Z,-0.70
2023-02-27T01:52:01.994Z,-0.90
2023-02-27T01:54:32.157Z,-1.20
2023-02-27T01:56:59.316Z,-1.00
2023-02-27T01:59:26.352Z,-0.90
2023-02-27T02:01:53.442Z,-0.80
2023-02-27T02:04:20.408Z,-1.00
2023-02-27T02:06:50.630Z,-1.20
2023-02-27T02:09:21.677Z,-1.20
2023-02-27T02:11:49.322Z,-1.30
2023-02-27T02:14:18.122Z,-1.30
2023-02-27T02:17:10.126Z,-1.10
2023-02-27T02:20:10.143Z,-1.00
2023-02-27T02:23:04.488Z,-1.00
2023-02-27T02:25:43.687Z,-1.00
2023-02-27T02:28:47.657Z,-1.10
2023-02-27T02:31:20.689Z,-1.00
2023-02-27T02:34:05.888Z,-1.20
2023-02-27T02:36:55.208Z,-1.40
2023-02-27T02:39:40.972Z,-1.30
2023-02-27T02:42:27.030Z,-1.50
2023-02-27T02:45:03.597Z,-1.40
2023-02-27T02:47:34.184Z,-1.30
2023-02-27T02:50:19.617Z,-1.50
2023-02-27T02:52:58.856Z,-1.50
2023-02-27T02:55:43.554Z,-1.60
2023-02-27T02:58:15.180Z,-1.70
2023-02-27T03:00:54.656Z,-1.80
2023-02-27T03:03:30.699Z,-1.70
2023-02-27T03:06:04.570Z,-1.70
2023-02-27T03:08:37.550Z,-1.90
2023-02-27T03:11:05.886Z,-1.70
2023-02-27T03:13:59.154Z,-1.50
2023-02-27T03:16:55.482Z,-1.60
2023-02-27T03:19:28.287Z,-1.30
2023-02-27T03:22:19.051Z,-1.10
2023-02-27T03:24:54.246Z,-1.10
2023-02-27T03:27:24.148Z,-0.90
2023-02-27T03:30:07.364Z,-0.90
2023-02-27T03:32:43.730Z,-0.90
2023-02-27T03:35:12.894Z,-1.00
2023-02-27T03:37:58.980Z,-1.20
2023-02-27T03:40:37.907Z,-1.10
2023-02-27T03:43:19.243Z,-1.10
2023-02-27T03:46:10.092Z,-1.20
2023-02-27T03:48:37.811Z,-1.20
2023-02-27T03:51:05.985Z,-1.10
2023-02-27T03:54:04.106Z,-1.40
2023-02-27T03:56:53.468Z,-1.40
2023-02-27T03:59:21.019Z,-1.40
2023-02-27T04:01:53.516Z,-1.40
2023-02-27T04:04:21.430Z,-1.50
2023-02-27T04:07:25.516Z,-1.50
2023-02-27T04:10:11.592Z,-1.50
2023-02-27T04:12:47.593Z,-1.30
2023-02-27T04:15:46.272Z,-1.50
2023-02-27T04:18:27.730Z,-1.60
2023-02-27T04:21:00.096Z,-1.70
2023-02-27T04:23:46.463Z,-1.60
2023-02-27T04:26:22.958Z,-1.60
2023-02-27T04:29:19.388Z,-1.70
2023-02-27T04:32:01.378Z,-1.60
2023-02-27T04:34:49.058Z,-1.70
2023-02-27T04:37:24.313Z,-1.60
2023-02-27T04:39:57.380Z,-1.50
2023-02-27T04:53:34.922Z,-1.80
2023-02-27T04:56:10.072Z,-1.70
2023-02-27T04:58:44.380Z,-1.60
2023-02-27T05:01:20.540Z,-1.60
2023-02-27T05:03:49.973Z,-1.80
2023-02-27T05:06:20.918Z,-1.50
2023-02-27T05:09:11.804Z,-1.60
2023-02-27T05:11:45.323Z,-1.50
2023-02-27T05:14:16.069Z,-1.40
2023-02-27T05:17:02.047Z,-1.70
2023-02-27T05:19:32.328Z,-1.90
2023-02-27T05:22:05.553Z,-1.90
2023-02-27T05:25:04.202Z,-1.70
2023-02-27T05:27:54.281Z,-1.60
2023-02-27T05:30:32.505Z,-1.80
2023-02-27T05:33:04.195Z,-1.90
2023-02-27T05:35:37.150Z,-1.70
2023-02-27T05:38:15.661Z,-1.80
2023-02-27T05:40:57.008Z,-1.80
2023-02-27T05:43:29.578Z,-1.90
2023-02-27T05:46:01.147Z,-2.00
2023-02-27T05:48:32.670Z,-1.90
2023-02-27T05:50:59.960Z,-1.90
2023-02-27T05:53:33.523Z,-1.80
2023-02-27T05:56:03.376Z,-1.90
2023-02-27T05:58:41.150Z,-1.70
2023-02-27T06:01:10.345Z,-2.00
2023-02-27T06:03:39.685Z,-1.70
2023-02-27T06:06:11.602Z,-1.60
2023-02-27T06:08:38.878Z,-1.60
2023-02-27T06:11:06.241Z,-1.60
2023-02-27T06:13:33.304Z,-1.70
2023-02-27T06:16:00.409Z,-1.80
2023-02-27T06:18:27.555Z,-1.80
2023-02-27T06:20:54.612Z,-1.90
2023-02-27T06:23:21.742Z,-2.00
2023-02-27T06:25:49.559Z,-2.10
2023-02-27T06:28:16.627Z,-2.20
2023-02-27T06:30:45.324Z,-2.20
2023-02-27T06:33:13.522Z,-2.20
2023-02-27T06:35:40.648Z,-2.30
2023-02-27T06:38:07.763Z,-2.20
2023-02-27T06:40:35.013Z,-2.40
2023-02-27T06:43:02.100Z,-2.40
2023-02-27T06:45:29.152Z,-2.20
2023-02-27T06:47:56.366Z,-2.00
2023-02-27T06:50:23.750Z,-1.80
2023-02-27T06:52:50.913Z,-1.80
2023-02-27T06:55:22.755Z,-1.80
2023-02-27T06:57:50.245Z,-1.80
2023-02-27T07:00:17.927Z,-1.70
2023-02-27T07:02:45.026Z,-1.60
2023-02-27T07:05:12.278Z,-1.60
2023-02-27T07:07:39.882Z,-1.60
2023-02-27T07:10:11.867Z,-1.70
2023-02-27T07:12:39.898Z,-1.80
2023-02-27T07:15:08.266Z,-1.70
2023-02-27T07:17:35.369Z,-1.70
2023-02-27T07:20:02.585Z,-1.70
2023-02-27T07:22:29.681Z,-1.90
2023-02-27T07:24:56.808Z,-2.10
2023-02-27T07:27:23.886Z,-2.00
2023-02-27T07:29:51.081Z,-1.70
2023-02-27T07:32:18.236Z,-1.90
2023-02-27T07:34:45.340Z,-1.90
2023-02-27T07:37:12.415Z,-2.00
2023-02-27T07:39:39.514Z,-1.80
2023-02-27T07:42:06.715Z,-2.10
2023-02-27T07:44:34.391Z,-2.30
2023-02-27T07:47:02.077Z,-2.10
2023-02-27T07:49:29.142Z,-1.80
2023-02-27T07:51:56.570Z,-1.90
2023-02-27T07:54:23.723Z,-2.00
2023-02-27T07:56:50.788Z,-1.90
2023-02-27T07:59:17.891Z,-2.00
2023-02-27T08:01:44.934Z,-1.90
2023-02-27T08:04:12.060Z,-1.90
2023-02-27T08:06:39.150Z,-1.90
2023-02-27T08:09:06.309Z,-1.90
2023-02-27T08:11:33.392Z,-1.80
2023-02-27T08:14:02.288Z,-1.90
2023-02-27T08:16:30.915Z,-1.80
2023-02-27T08:18:58.466Z,-1.80
2023-02-27T08:21:26.096Z,-1.70
2023-02-27T08:23:54.536Z,-1.70
2023-02-27T08:26:22.102Z,-1.70
2023-02-27T08:28:49.295Z,-1.60
2023-02-27T08:31:16.574Z,-1.70
2023-02-27T08:33:44.061Z,-1.70
2023-02-27T08:36:11.268Z,-1.50
2023-02-27T08:38:38.386Z,-1.50
2023-02-27T08:41:05.678Z,-1.60
2023-02-27T08:43:33.129Z,-1.50
2023-02-27T08:46:00.351Z,-1.50
2023-02-27T08:48:27.464Z,-1.50
2023-02-27T08:50:56.226Z,-1.60
2023-02-27T08:53:25.072Z,-1.50
2023-02-27T08:55:52.588Z,-1.40
2023-02-27T08:58:20.172Z,-1.30
2023-02-27T09:00:47.407Z,-1.40
2023-02-27T09:03:14.612Z,-1.30
2023-02-27T09:05:42.519Z,-1.10
2023-02-27T09:08:09.898Z,-0.90
2023-02-27T09:10:36.990Z,-0.60
2023-02-27T09:13:04.436Z,-0.60
2023-02-27T09:15:33.026Z,-0.50
2023-02-27T09:18:04.086Z,-0.40
2023-02-27T09:20:31.895Z,-0.40
2023-02-27T09:22:59.744Z,-0.40
2023-02-27T09:25:27.559Z,-0.40
2023-02-27T09:27:54.991Z,-0.30
2023-02-27T09:30:23.027Z,-0.20
2023-02-27T09:32:51.144Z,-0.20
2023-02-27T09:35:20.528Z,-0.20
2023-02-27T09:37:49.324Z,0.00
2023-02-27T09:40:29.279Z,-0.10
2023-02-27T09:43:07.523Z,-0.10
2023-02-27T09:45:39.393Z,-0.10
2023-02-27T09:48:24.594Z,-0.10
2023-02-27T09:50:54.577Z,-0.10
2023-02-27T09:53:27.944Z,-0.10
2023-02-27T09:56:03.469Z,-0.20
2023-02-27T09:59:02.850Z,-0.10
2023-02-27T10:01:55.852Z,0.00
2023-02-27T10:04:45.682Z,0.50
2023-02-27T10:07:42.781Z,0.60
2023-02-27T10:10:21.742Z,0.60
2023-02-27T10:13:12.506Z,0.60
2023-02-27T10:15:47.316Z,0.60
2023-02-27T10:18:26.846Z,0.70
2023-02-27T10:21:08.365Z,0.70
2023-02-27T10:23:49.616Z,0.70
2023-02-27T10:26:23.127Z,0.80
2023-02-27T10:28:50.298Z,0.90
2023-02-27T10:31:30.624Z,0.90
2023-02-27T10:33:59.440Z,0.80
2023-02-27T10:36:34.133Z,0.70
2023-02-27T10:39:07.640Z,0.70
2023-02-27T10:41:37.775Z,0.80
2023-02-27T10:44:05.207Z,1.00
2023-02-27T10:46:35.762Z,0.90
2023-02-27T10:49:10.374Z,0.90
2023-02-27T10:51:38.486Z,0.80
2023-02-27T10:54:26.297Z,0.90
2023-02-27T10:56:59.136Z,1.00
2023-02-27T10:59:33.863Z,1.10
2023-02-27T11:02:04.890Z,1.00
2023-02-27T11:04:35.204Z,1.00
2023-02-27T11:07:06.180Z,0.90
2023-02-27T11:09:34.318Z,1.00
2023-02-27T11:12:21.172Z,1.00
2023-02-27T11:14:54.786Z,1.10
2023-02-27T11:17:34.160Z,1.00
2023-02-27T11:20:06.501Z,1.00
2023-02-27T11:22:34.004Z,1.00
2023-02-27T11:25:23.758Z,1.00
2023-02-27T11:27:52.318Z,1.10
2023-02-27T11:30:27.107Z,1.50
2023-02-27T11:32:56.904Z,1.70
2023-02-27T11:35:37.603Z,1.80
2023-02-27T11:38:18.088Z,1.80
2023-02-27T11:40:55.731Z,1.60
2023-02-27T11:43:36.325Z,1.60
2023-02-27T11:46:47.894Z,1.50
2023-02-27T11:49:20.461Z,1.70
2023-02-27T11:52:11.592Z,1.80
2023-02-27T11:55:01.720Z,1.70
2023-02-27T11:57:35.775Z,1.70
2023-02-27T12:00:14.557Z,1.70
2023-02-27T12:02:55.404Z,2.40
2023-02-27T12:05:33.169Z,2.70
2023-02-27T12:08:26.436Z,2.90
2023-02-27T12:11:18.515Z,2.90
2023-02-27T12:14:15.625Z,2.60
2023-02-27T12:16:54.287Z,2.30
2023-02-27T12:20:09.900Z,2.10
2023-02-27T12:22:41.929Z,2.10
2023-02-27T12:25:37.286Z,2.50
2023-02-27T12:28:12.391Z,2.50
2023-02-27T12:30:45.452Z,2.30
2023-02-27T12:33:31.371Z,2.10
2023-02-27T12:36:03.565Z,2.40
2023-02-27T12:38:31.432Z,3.30
2023-02-27T12:41:07.326Z,3.80
2023-02-27T12:43:58.607Z,3.70
2023-02-27T12:46:39.664Z,3.40
2023-02-27T12:49:16.541Z,2.80
2023-02-27T12:51:49.303Z,2.50
2023-02-27T12:54:25.568Z,2.30
2023-02-27T12:57:11.194Z,2.90
2023-02-27T12:59:44.408Z,3.40
2023-02-27T13:02:23.371Z,4.00
2023-02-27T13:05:00.907Z,4.40
2023-02-27T13:07:37.427Z,4.70
2023-02-27T13:10:28.908Z,5.30
2023-02-27T13:13:31.718Z,5.80
2023-02-27T13:16:25.529Z,6.10
2023-02-27T13:19:02.793Z,6.60
2023-02-27T13:21:48.748Z,6.30
2023-02-27T13:24:23.904Z,5.30
2023-02-27T13:27:00.164Z,4.50
2023-02-27T13:29:34.990Z,4.00
2023-02-27T13:32:42.784Z,3.90
2023-02-27T13:35:40.216Z,4.40
2023-02-27T13:38:42.580Z,4.40
2023-02-27T13:41:24.801Z,4.30
2023-02-27T13:43:59.155Z,3.90
2023-02-27T13:46:30.412Z,3.30
2023-02-27T13:49:10.601Z,3.00
2023-02-27T13:51:39.954Z,2.80
2023-02-27T13:54:16.316Z,2.60
2023-02-27T13:56:55.332Z,2.70
2023-02-27T13:59:36.669Z,2.90
2023-02-27T14:02:11.648Z,2.70
2023-02-27T14:04:50.144Z,2.70
2023-02-27T14:07:26.686Z,2.60
2023-02-27T14:10:01.596Z,2.50
2023-02-27T14:12:44.203Z,2.50
2023-02-27T14:15:18.538Z,2.40
2023-02-27T14:17:48.716Z,2.40
2023-02-27T14:20:19.674Z,2.30
2023-02-27T14:23:14.823Z,2.30
2023-02-27T14:25:49.732Z,2.30
2023-02-27T14:28:36.139Z,2.10
2023-02-27T14:31:06.420Z,2.80
2023-02-27T14:33:55.140Z,3.60
2023-02-27T14:36:24.979Z,4.00
2023-02-27T14:38:56.232Z,4.30
2023-02-27T14:42:14.267Z,4.60
2023-02-27T14:44:47.617Z,4.60
2023-02-27T14:47:35.419Z,4.50
2023-02-27T14:50:20.408Z,4.80
2023-02-27T14:52:47.556Z,5.00
2023-02-27T14:55:27.988Z,4.80
2023-02-27T14:57:58.186Z,4.80
2023-02-27T15:00:37.460Z,4.80
2023-02-27T15:03:23.257Z,4.80
2023-02-27T15:05:53.539Z,5.00
2023-02-27T15:08:24.065Z,4.80
2023-02-27T15:10:53.198Z,4.50
2023-02-27T15:13:39.009Z,4.30
2023-02-27T15:16:19.023Z,3.80
2023-02-27T15:18:50.581Z,4.00
2023-02-27T15:21:21.071Z,3.80
2023-02-27T15:24:02.073Z,4.40
2023-02-27T15:26:34.138Z,4.70
2023-02-27T15:29:02.281Z,4.40
2023-02-27T15:31:32.233Z,4.30
2023-02-27T15:34:00.949Z,4.10
2023-02-27T15:36:36.765Z,3.60
2023-02-27T15:39:06.819Z,3.90
2023-02-27T15:41:34.534Z,3.80
2023-02-27T15:44:03.285Z,3.40
2023-02-27T15:46:31.178Z,3.50
2023-02-27T15:48:58.907Z,3.60
2023-02-27T15:51:28.121Z,3.70
2023-02-27T15:53:59.710Z,3.40
2023-02-27T15:56:32.519Z,3.40
2023-02-27T15:59:01.212Z,3.20
2023-02-27T16:01:31.151Z,3.00
2023-02-27T16:04:06.515Z,3.10
2023-02-27T16:06:40.316Z,3.10
2023-02-27T16:09:20.998Z,2.80
2023-02-27T16:11:49.690Z,2.50
2023-02-27T16:14:36.869Z,2.60
2023-02-27T16:17:04.366Z,2.50
2023-02-27T16:19:32.736Z,2.40
2023-02-27T16:22:06.789Z,2.30
2023-02-27T16:24:34.084Z,2.20
2023-02-27T16:27:01.994Z,2.20
2023-02-27T16:29:36.370Z,2.30
2023-02-27T16:32:04.306Z,2.20
2023-02-27T16:34:45.841Z,2.30
2023-02-27T16:37:27.695Z,2.10
2023-02-27T16:39:54.827Z,2.30
2023-02-27T16:42:22.447Z,2.40
2023-02-27T16:44:49.588Z,2.40
2023-02-27T16:47:16.754Z,2.40
2023-02-27T16:49:45.634Z,2.40
2023-02-27T16:52:12.938Z,2.40
2023-02-27T16:54:40.041Z,2.10
2023-02-27T16:57:07.166Z,2.20
2023-02-27T16:59:41.771Z,2.20
2023-02-27T17:02:14.044Z,2.00
2023-02-27T17:04:46.901Z,1.80
2023-02-27T17:07:16.912Z,1.80
2023-02-27T17:09:47.764Z,2.00
2023-02-27T17:12:15.007Z,2.20
2023-02-27T17:14:42.114Z,2.10
2023-02-27T17:17:11.445Z,2.20
2023-02-27T17:19:38.974Z,2.10
2023-02-27T17:22:06.347Z,2.10
2023-02-27T17:24:34.108Z,2.20
2023-02-27T17:27:01.211Z,2.20
2023-02-27T17:29:28.868Z,2.30
2023-02-27T17:31:56.075Z,2.30
2023-02-27T17:34:23.710Z,2.00
2023-02-27T17:36:51.001Z,2.00
2023-02-27T17:39:18.151Z,2.00
2023-02-27T17:41:46.563Z,2.10
2023-02-27T17:44:14.572Z,2.00
2023-02-27T17:46:41.719Z,2.10
2023-02-27T17:49:09.607Z,2.20
2023-02-27T17:51:37.215Z,2.10
2023-02-27T17:54:05.843Z,1.90
2023-02-27T17:56:36.306Z,1.70
2023-02-27T17:59:04.243Z,1.80
2023-02-27T18:01:31.503Z,1.70
2023-02-27T18:03:58.682Z,1.80
2023-02-27T18:06:25.971Z,1.70
2023-02-27T18:08:53.286Z,1.70
2023-02-27T18:11:21.258Z,1.70
2023-02-27T18:13:49.397Z,1.70
2023-02-27T18:16:16.663Z,1.70
2023-02-27T18:18:43.977Z,1.70
2023-02-27T18:21:16.897Z,1.40
2023-02-27T18:23:44.382Z,1.60
2023-02-27T18:26:28.624Z,1.60
2023-02-27T18:29:02.132Z,1.40
2023-02-27T18:31:32.653Z,1.50
2023-02-27T18:34:00.655Z,1.60
2023-02-27T18:36:29.168Z,1.60
2023-02-27T18:38:56.570Z,1.80
2023-02-27T18:41:23.947Z,1.70
2023-02-27T18:43:51.154Z,1.50
2023-02-27T18:46:18.725Z,1.40
2023-02-27T18:48:46.859Z,1.60
2023-02-27T18:51:15.624Z,1.40
2023-02-27T18:53:45.896Z,1.40
2023-02-27T18:56:14.302Z,1.10
2023-02-27T18:58:41.483Z,1.20
2023-02-27T19:01:12.699Z,1.30
2023-02-27T19:03:39.774Z,1.20
2023-02-27T19:06:06.849Z,1.10
2023-02-27T19:08:33.953Z,1.20
2023-02-27T19:11:01.097Z,1.10
2023-02-27T19:13:28.220Z,1.20
2023-02-27T19:15:55.873Z,1.30
2023-02-27T19:18:23.117Z,1.30
2023-02-27T19:20:50.157Z,1.30
2023-02-27T19:23:17.239Z,1.40
2023-02-27T19:25:45.956Z,1.20
2023-02-27T19:28:13.211Z,0.90
2023-02-27T19:30:40.269Z,0.80
2023-02-27T19:33:07.474Z,0.90
2023-02-27T19:35:34.570Z,0.90
2023-02-27T19:38:01.643Z,1.00
2023-02-27T19:40:28.801Z,1.00
2023-02-27T19:42:55.866Z,0.80
2023-02-27T19:45:23.646Z,0.90
2023-02-27T19:47:50.784Z,1.00
2023-02-27T19:50:18.156Z,0.80
2023-02-27T19:52:45.344Z,0.90
2023-02-27T19:55:12.535Z,0.80
2023-02-27T19:57:39.650Z,0.80
2023-02-27T20:00:08.736Z,0.60
2023-02-27T20:02:42.528Z,0.80
2023-02-27T20:05:12.201Z,0.90
2023-02-27T20:07:40.451Z,0.80
2023-02-27T20:10:07.750Z,0.90
2023-02-27T20:12:35.033Z,0.80
2023-02-27T20:15:08.763Z,1.00
2023-02-27T20:17:35.880Z,0.80
2023-02-27T20:20:05.114Z,0.70
2023-02-27T20:22:33.601Z,0.70
2023-02-27T20:25:00.835Z,0.90
2023-02-27T20:27:28.334Z,0.90
2023-02-27T20:29:57.456Z,0.80
2023-02-27T20:32:25.192Z,0.80
2023-02-27T20:34:54.216Z,0.70
2023-02-27T20:37:23.353Z,0.80
2023-02-27T20:39:50.933Z,0.60
2023-02-27T20:42:18.041Z,0.60
2023-02-27T20:44:45.169Z,0.50
2023-02-27T20:47:12.238Z,0.50
2023-02-27T20:49:39.690Z,0.40
2023-02-27T20:52:06.934Z,0.60
2023-02-27T20:54:34.016Z,0.50
2023-02-27T20:57:01.177Z,0.60
2023-02-27T20:59:28.230Z,0.40
2023-02-27T21:01:55.636Z,0.50
2023-02-27T21:04:25.928Z,0.50
2023-02-27T21:06:54.675Z,0.70
2023-02-27T21:09:22.355Z,0.60
2023-02-27T21:11:49.401Z,0.60
2023-02-27T21:14:16.553Z,0.60
2023-02-27T21:16:43.704Z,0.50
2023-02-27T21:19:11.057Z,0.60
2023-02-27T21:21:38.299Z,0.40
2023-02-27T21:24:06.190Z,0.40
2023-02-27T21:26:39.618Z,0.60
2023-02-27T21:29:19.029Z,0.50
2023-02-27T21:31:49.097Z,0.50
2023-02-27T21:34:23.155Z,0.50
2023-02-27T21:36:51.527Z,0.50
2023-02-27T21:39:21.472Z,0.30
2023-02-27T21:41:49.451Z,0.00
2023-02-27T21:44:20.094Z,0.10
2023-02-27T21:46:47.795Z,0.00
2023-02-27T21:49:20.285Z,0.10
2023-02-27T21:51:47.701Z,0.20
2023-02-27T21:54:16.222Z,0.00
2023-02-27T21:56:44.893Z,0.30
2023-02-27T21:59:12.553Z,0.30
2023-02-27T22:01:39.794Z,0.20
2023-02-27T22:04:07.656Z,0.10
2023-02-27T22:06:35.235Z,0.10
2023-02-27T22:09:05.096Z,0.20
2023-02-27T22:11:34.026Z,0.40
2023-02-27T22:14:01.545Z,0.30
2023-02-27T22:16:28.714Z,0.30
2023-02-27T22:18:55.833Z,0.20
2023-02-27T22:21:25.608Z,0.30
2023-02-27T22:23:55.169Z,0.00
2023-02-27T22:26:25.218Z,0.20
2023-02-27T22:28:53.046Z,0.30
2023-02-27T22:31:29.766Z,0.20
2023-02-27T22:34:02.034Z,0.20
2023-02-27T22:36:30.649Z,0.20
2023-02-27T22:38:58.652Z,0.20
2023-02-27T22:41:29.305Z,0.20
2023-02-27T22:43:58.041Z,0.30
2023-02-27T22:46:28.552Z,0.20
2023-02-27T22:49:00.666Z,0.30
2023-02-27T22:51:28.909Z,0.20
2023-02-27T22:53:58.761Z,0.30
2023-02-27T22:56:26.556Z,0.20
2023-02-27T22:58:54.011Z,0.20
2023-02-27T23:01:24.077Z,0.10
2023-02-27T23:03:53.603Z,0.10
2023-02-27T23:06:24.553Z,0.00
2023-02-27T23:08:53.184Z,0.00
2023-02-27T23:11:21.413Z,0.20
2023-02-27T23:13:50.240Z,0.10
2023-02-27T23:16:19.520Z,0.10
2023-02-27T23:18:54.879Z,0.20
2023-02-27T23:21:30.307Z,0.20
2023-02-27T23:23:58.683Z,0.30
2023-02-27T23:26:29.576Z,0.20
2023-02-27T23:28:57.766Z,0.20
2023-02-27T23:31:25.095Z,0.20
2023-02-27T23:33:52.386Z,0.10
2023-02-27T23:36:20.363Z,0.00
2023-02-27T23:38:48.268Z,-0.20
2023-02-27T23:41:20.837Z,-0.20
2023-02-27T23:43:51.822Z,-0.10
2023-02-27T23:46:19.714Z,-0.20
2023-02-27T23:48:48.040Z,-0.10
2023-02-27T23:51:15.426Z,-0.30
2023-02-27T23:53:42.981Z,-0.30
2023-02-27T23:56:18.554Z,-0.10
2023-02-27T23:58:47.122Z,-0.20
